sensor_id;sensor_type;location;lat;lon;timestamp;pressure;altitude;pressure_sealevel;temperature;humidity
65127;BME280;51927;49.080;19.652;2023-02-14T00:00:00;95862.13;;;26.36;32.42
65127;BME280;51927;49.080;19.652;2023-02-14T00:00:06;95862.13;;;26.36;32.46
65127;BME280;51927;49.080;19.652;2023-02-14T00:00:11;95862.13;;;26.36;32.84
65127;BME280;51927;49.080;19.652;2023-02-14T00:00:17;95862.13;;;26.36;32.83
65127;BME280;51927;49.080;19.652;2023-02-14T00:00:22;95859.44;;;26.36;32.60
65127;BME280;51927;49.080;19.652;2023-02-14T00:00:27;95864.81;;;26.36;32.38
65127;BME280;51927;49.080;19.652;2023-02-14T00:00:33;95865.88;;;26.35;32.92
65127;BME280;51927;49.080;19.652;2023-02-14T00:00:38;95866.69;;;26.36;32.73
65127;BME280;51927;49.080;19.652;2023-02-14T00:00:43;95861.31;;;26.36;32.65
65127;BME280;51927;49.080;19.652;2023-02-14T00:00:48;95861.31;;;26.36;32.47
65127;BME280;51927;49.080;19.652;2023-02-14T00:00:54;95868.56;;;26.35;32.85
65127;BME280;51927;49.080;19.652;2023-02-14T00:01:05;95868.56;;;26.35;32.78
65127;BME280;51927;49.080;19.652;2023-02-14T00:01:11;95851.38;;;26.36;32.65
65127;BME280;51927;49.080;19.652;2023-02-14T00:01:16;95856.75;;;26.36;32.66
65127;BME280;51927;49.080;19.652;2023-02-14T00:01:21;95851.38;;;26.36;32.61
65127;BME280;51927;49.080;19.652;2023-02-14T00:01:27;95855.97;;;26.36;32.65
65127;BME280;51927;49.080;19.652;2023-02-14T00:01:32;95854.06;;;26.36;32.81
65127;BME280;51927;49.080;19.652;2023-02-14T00:01:37;95860.22;;;26.37;32.92
65127;BME280;51927;49.080;19.652;2023-02-14T00:01:43;95856.75;;;26.36;32.63
65127;BME280;51927;49.080;19.652;2023-02-14T00:01:48;95865.59;;;26.37;32.67
65127;BME280;51927;49.080;19.652;2023-02-14T00:01:53;95859.44;;;26.36;32.90
65127;BME280;51927;49.080;19.652;2023-02-14T00:01:58;95862.13;;;26.36;32.44
65127;BME280;51927;49.080;19.652;2023-02-14T00:02:04;95862.13;;;26.36;32.65
65127;BME280;51927;49.080;19.652;2023-02-14T00:02:09;95856.75;;;26.36;32.36
65127;BME280;51927;49.080;19.652;2023-02-14T00:02:15;95862.13;;;26.36;32.75
65127;BME280;51927;49.080;19.652;2023-02-14T00:02:20;95862.13;;;26.36;32.63
65127;BME280;51927;49.080;19.652;2023-02-14T00:02:25;95851.38;;;26.36;32.24
65127;BME280;51927;49.080;19.652;2023-02-14T00:02:30;95862.13;;;26.36;32.84
65127;BME280;51927;49.080;19.652;2023-02-14T00:02:36;95855.97;;;26.36;32.56
65127;BME280;51927;49.080;19.652;2023-02-14T00:02:41;95862.13;;;26.36;32.65
65127;BME280;51927;49.080;19.652;2023-02-14T00:02:46;95856.75;;;26.36;32.47
65127;BME280;51927;49.080;19.652;2023-02-14T00:02:51;95864.00;;;26.36;32.55
65127;BME280;51927;49.080;19.652;2023-02-14T00:02:57;95846.00;;;26.36;32.41
65127;BME280;51927;49.080;19.652;2023-02-14T00:03:02;95848.69;;;26.36;32.71
65127;BME280;51927;49.080;19.652;2023-02-14T00:03:07;95852.97;;;26.37;32.63
65127;BME280;51927;49.080;19.652;2023-02-14T00:03:13;95861.03;;;26.37;32.73
65127;BME280;51927;49.080;19.652;2023-02-14T00:03:19;95860.22;;;26.37;32.56
65127;BME280;51927;49.080;19.652;2023-02-14T00:03:24;95858.34;;;26.37;32.49
65127;BME280;51927;49.080;19.652;2023-02-14T00:03:30;95851.38;;;26.36;32.42
65127;BME280;51927;49.080;19.652;2023-02-14T00:03:35;95847.09;;;26.35;32.72
65127;BME280;51927;49.080;19.652;2023-02-14T00:03:40;95850.59;;;26.36;32.71
65127;BME280;51927;49.080;19.652;2023-02-14T00:03:45;95848.97;;;26.34;32.78
65127;BME280;51927;49.080;19.652;2023-02-14T00:03:50;95856.75;;;26.36;32.63
65127;BME280;51927;49.080;19.652;2023-02-14T00:03:55;95851.38;;;26.36;32.61
65127;BME280;51927;49.080;19.652;2023-02-14T00:04:04;95855.97;;;26.36;32.55
65127;BME280;51927;49.080;19.652;2023-02-14T00:04:09;95853.28;;;26.36;32.42
65127;BME280;51927;49.080;19.652;2023-02-14T00:04:15;95853.28;;;26.36;32.56
65127;BME280;51927;49.080;19.652;2023-02-14T00:04:20;95840.94;;;26.34;32.67
65127;BME280;51927;49.080;19.652;2023-02-14T00:04:26;95845.22;;;26.36;32.80
65127;BME280;51927;49.080;19.652;2023-02-14T00:04:31;95849.78;;;26.35;32.50
65127;BME280;51927;49.080;19.652;2023-02-14T00:04:36;95846.28;;;26.34;32.48
65127;BME280;51927;49.080;19.652;2023-02-14T00:04:48;95853.56;;;26.34;32.69
65127;BME280;51927;49.080;19.652;2023-02-14T00:04:53;95854.34;;;26.34;32.63
65127;BME280;51927;49.080;19.652;2023-02-14T00:04:58;95852.75;;;26.33;32.38
65127;BME280;51927;49.080;19.652;2023-02-14T00:05:03;95845.50;;;26.34;32.79
65127;BME280;51927;49.080;19.652;2023-02-14T00:05:08;95851.97;;;26.33;32.44
65127;BME280;51927;49.080;19.652;2023-02-14T00:05:14;95857.03;;;26.34;32.65
65127;BME280;51927;49.080;19.652;2023-02-14T00:05:19;95854.34;;;26.34;32.67
65127;BME280;51927;49.080;19.652;2023-02-14T00:05:24;95852.75;;;26.33;32.63
65127;BME280;51927;49.080;19.652;2023-02-14T00:05:29;95855.16;;;26.35;32.60
65127;BME280;51927;49.080;19.652;2023-02-14T00:05:34;95853.56;;;26.34;32.73
65127;BME280;51927;49.080;19.652;2023-02-14T00:05:39;95853.56;;;26.34;32.68
65127;BME280;51927;49.080;19.652;2023-02-14T00:05:45;95853.56;;;26.34;32.51
65127;BME280;51927;49.080;19.652;2023-02-14T00:05:50;95851.97;;;26.33;32.63
65127;BME280;51927;49.080;19.652;2023-02-14T00:05:55;95853.56;;;26.34;32.60
65127;BME280;51927;49.080;19.652;2023-02-14T00:06:04;95860.50;;;26.35;32.55
65127;BME280;51927;49.080;19.652;2023-02-14T00:06:11;95856.25;;;26.34;32.38
65127;BME280;51927;49.080;19.652;2023-02-14T00:06:16;95857.03;;;26.34;32.56
65127;BME280;51927;49.080;19.652;2023-02-14T00:06:21;95850.88;;;26.34;32.51
65127;BME280;51927;49.080;19.652;2023-02-14T00:06:26;95855.16;;;26.35;32.55
65127;BME280;51927;49.080;19.652;2023-02-14T00:06:32;95857.81;;;26.35;32.33
65127;BME280;51927;49.080;19.652;2023-02-14T00:06:39;95860.50;;;26.35;32.54
65127;BME280;51927;49.080;19.652;2023-02-14T00:06:44;95857.81;;;26.35;32.68
65127;BME280;51927;49.080;19.652;2023-02-14T00:06:49;95855.97;;;26.36;32.56
65127;BME280;51927;49.080;19.652;2023-02-14T00:06:55;95860.50;;;26.35;32.81
65127;BME280;51927;49.080;19.652;2023-02-14T00:07:00;95859.72;;;26.34;32.47
65127;BME280;51927;49.080;19.652;2023-02-14T00:07:05;95855.16;;;26.35;32.33
65127;BME280;51927;49.080;19.652;2023-02-14T00:07:10;95849.78;;;26.35;32.43
65127;BME280;51927;49.080;19.652;2023-02-14T00:07:15;95850.88;;;26.34;32.73
65127;BME280;51927;49.080;19.652;2023-02-14T00:07:21;95854.34;;;26.34;32.69
65127;BME280;51927;49.080;19.652;2023-02-14T00:07:26;95856.25;;;26.34;32.29
65127;BME280;51927;49.080;19.652;2023-02-14T00:07:31;95851.66;;;26.34;32.48
65127;BME280;51927;49.080;19.652;2023-02-14T00:07:36;95846.28;;;26.34;32.53
65127;BME280;51927;49.080;19.652;2023-02-14T00:07:41;95845.22;;;26.36;32.78
65127;BME280;51927;49.080;19.652;2023-02-14T00:07:47;95852.47;;;26.35;32.48
65127;BME280;51927;49.080;19.652;2023-02-14T00:07:52;95851.66;;;26.34;32.69
65127;BME280;51927;49.080;19.652;2023-02-14T00:07:57;95846.28;;;26.34;32.60
65127;BME280;51927;49.080;19.652;2023-02-14T00:08:02;95841.72;;;26.35;32.55
65127;BME280;51927;49.080;19.652;2023-02-14T00:08:07;95846.00;;;26.36;32.24
65127;BME280;51927;49.080;19.652;2023-02-14T00:08:13;95848.69;;;26.36;32.38
65127;BME280;51927;49.080;19.652;2023-02-14T00:08:18;95849.78;;;26.35;32.74
65127;BME280;51927;49.080;19.652;2023-02-14T00:08:23;95851.38;;;26.36;32.56
65127;BME280;51927;49.080;19.652;2023-02-14T00:08:28;95855.97;;;26.36;32.69
65127;BME280;51927;49.080;19.652;2023-02-14T00:08:33;95840.94;;;26.34;32.69
65127;BME280;51927;49.080;19.652;2023-02-14T00:08:40;95844.41;;;26.35;32.65
65127;BME280;51927;49.080;19.652;2023-02-14T00:08:48;95853.28;;;26.36;32.37
65127;BME280;51927;49.080;19.652;2023-02-14T00:08:54;95847.09;;;26.35;32.46
65127;BME280;51927;49.080;19.652;2023-02-14T00:09:00;95850.88;;;26.34;32.45
65127;BME280;51927;49.080;19.652;2023-02-14T00:09:12;95843.63;;;26.34;32.43
65127;BME280;51927;49.080;19.652;2023-02-14T00:09:18;95848.19;;;26.34;32.79
65127;BME280;51927;49.080;19.652;2023-02-14T00:09:24;95848.19;;;26.34;32.44
65127;BME280;51927;49.080;19.652;2023-02-14T00:09:29;95848.19;;;26.34;32.69
65127;BME280;51927;49.080;19.652;2023-02-14T00:09:34;95845.50;;;26.34;32.55
65127;BME280;51927;49.080;19.652;2023-02-14T00:09:39;95850.88;;;26.34;32.70
65127;BME280;51927;49.080;19.652;2023-02-14T00:09:44;95854.34;;;26.34;32.66
65127;BME280;51927;49.080;19.652;2023-02-14T00:09:50;95847.38;;;26.33;32.43
65127;BME280;51927;49.080;19.652;2023-02-14T00:09:55;95850.06;;;26.33;32.73
65127;BME280;51927;49.080;19.652;2023-02-14T00:10:00;95853.56;;;26.34;32.68
65127;BME280;51927;49.080;19.652;2023-02-14T00:10:05;95850.88;;;26.34;32.39
65127;BME280;51927;49.080;19.652;2023-02-14T00:10:11;95854.34;;;26.34;32.47
65127;BME280;51927;49.080;19.652;2023-02-14T00:10:16;95848.19;;;26.34;32.62
65127;BME280;51927;49.080;19.652;2023-02-14T00:10:21;95844.69;;;26.33;32.72
65127;BME280;51927;49.080;19.652;2023-02-14T00:10:26;95846.28;;;26.34;32.53
65127;BME280;51927;49.080;19.652;2023-02-14T00:10:31;95850.06;;;26.33;32.75
65127;BME280;51927;49.080;19.652;2023-02-14T00:10:37;95859.72;;;26.34;32.60
65127;BME280;51927;49.080;19.652;2023-02-14T00:10:42;95857.03;;;26.34;32.58
65127;BME280;51927;49.080;19.652;2023-02-14T00:10:47;95857.03;;;26.34;32.54
65127;BME280;51927;49.080;19.652;2023-02-14T00:10:52;95854.34;;;26.34;32.47
65127;BME280;51927;49.080;19.652;2023-02-14T00:10:57;95854.34;;;26.34;32.55
65127;BME280;51927;49.080;19.652;2023-02-14T00:11:03;95859.72;;;26.34;32.41
65127;BME280;51927;49.080;19.652;2023-02-14T00:11:08;95854.34;;;26.34;32.58
65127;BME280;51927;49.080;19.652;2023-02-14T00:11:13;95854.34;;;26.34;32.54
65127;BME280;51927;49.080;19.652;2023-02-14T00:11:19;95854.34;;;26.34;32.31
65127;BME280;51927;49.080;19.652;2023-02-14T00:11:24;95853.56;;;26.34;32.50
65127;BME280;51927;49.080;19.652;2023-02-14T00:11:29;95847.38;;;26.33;32.53
65127;BME280;51927;49.080;19.652;2023-02-14T00:11:35;95856.25;;;26.34;32.64
65127;BME280;51927;49.080;19.652;2023-02-14T00:11:40;95851.66;;;26.34;32.42
65127;BME280;51927;49.080;19.652;2023-02-14T00:11:45;95851.66;;;26.34;32.37
65127;BME280;51927;49.080;19.652;2023-02-14T00:11:51;95858.94;;;26.34;32.64
65127;BME280;51927;49.080;19.652;2023-02-14T00:11:56;95860.50;;;26.35;32.36
65127;BME280;51927;49.080;19.652;2023-02-14T00:12:02;95860.50;;;26.35;32.43
65127;BME280;51927;49.080;19.652;2023-02-14T00:12:07;95854.34;;;26.34;32.69
65127;BME280;51927;49.080;19.652;2023-02-14T00:12:12;95854.34;;;26.34;32.53
65127;BME280;51927;49.080;19.652;2023-02-14T00:12:18;95854.66;;;26.33;32.60
65127;BME280;51927;49.080;19.652;2023-02-14T00:12:23;95853.56;;;26.34;32.66
65127;BME280;51927;49.080;19.652;2023-02-14T00:12:28;95857.03;;;26.34;32.76
65127;BME280;51927;49.080;19.652;2023-02-14T00:12:33;95852.47;;;26.35;32.71
65127;BME280;51927;49.080;19.652;2023-02-14T00:12:38;95858.66;;;26.36;32.60
65127;BME280;51927;49.080;19.652;2023-02-14T00:12:43;95844.41;;;26.35;32.41
65127;BME280;51927;49.080;19.652;2023-02-14T00:12:49;95845.50;;;26.34;32.66
65127;BME280;51927;49.080;19.652;2023-02-14T00:12:54;95849.78;;;26.35;32.78
65127;BME280;51927;49.080;19.652;2023-02-14T00:12:59;95854.34;;;26.34;32.48
65127;BME280;51927;49.080;19.652;2023-02-14T00:13:04;95858.94;;;26.34;32.56
65127;BME280;51927;49.080;19.652;2023-02-14T00:13:09;95853.56;;;26.34;32.54
65127;BME280;51927;49.080;19.652;2023-02-14T00:13:15;95848.97;;;26.34;32.74
65127;BME280;51927;49.080;19.652;2023-02-14T00:13:20;95845.50;;;26.34;32.69
65127;BME280;51927;49.080;19.652;2023-02-14T00:13:25;95851.66;;;26.34;32.53
65127;BME280;51927;49.080;19.652;2023-02-14T00:13:30;95842.81;;;26.34;32.60
65127;BME280;51927;49.080;19.652;2023-02-14T00:13:35;95844.41;;;26.35;32.44
65127;BME280;51927;49.080;19.652;2023-02-14T00:13:41;95838.25;;;26.34;32.61
65127;BME280;51927;49.080;19.652;2023-02-14T00:14:06;95847.09;;;26.35;32.72
65127;BME280;51927;49.080;19.652;2023-02-14T00:14:30;95851.19;;;26.32;32.66
65127;BME280;51927;49.080;19.652;2023-02-14T00:14:54;95853.09;;;26.32;32.73
65127;BME280;51927;49.080;19.652;2023-02-14T00:15:18;95851.78;;;26.29;32.68
65127;BME280;51927;49.080;19.652;2023-02-14T00:15:26;95848.31;;;26.29;32.78
65127;BME280;51927;49.080;19.652;2023-02-14T00:15:31;95852.06;;;26.28;32.46
65127;BME280;51927;49.080;19.652;2023-02-14T00:15:36;95850.47;;;26.27;32.58
65127;BME280;51927;49.080;19.652;2023-02-14T00:15:41;95848.59;;;26.27;32.59
65127;BME280;51927;49.080;19.652;2023-02-14T00:15:47;95852.06;;;26.28;32.49
65127;BME280;51927;49.080;19.652;2023-02-14T00:15:53;95852.06;;;26.28;32.82
65127;BME280;51927;49.080;19.652;2023-02-14T00:15:58;95852.84;;;26.28;32.47
65127;BME280;51927;49.080;19.652;2023-02-14T00:16:03;95851.00;;;26.29;32.84
65127;BME280;51927;49.080;19.652;2023-02-14T00:16:09;95854.75;;;26.28;32.65
65127;BME280;51927;49.080;19.652;2023-02-14T00:16:14;95857.44;;;26.28;32.63
65127;BME280;51927;49.080;19.652;2023-02-14T00:16:19;95855.53;;;26.28;32.56
65127;BME280;51927;49.080;19.652;2023-02-14T00:16:24;95854.75;;;26.28;32.63
65127;BME280;51927;49.080;19.652;2023-02-14T00:16:30;95848.59;;;26.27;32.63
65127;BME280;51927;49.080;19.652;2023-02-14T00:16:35;95853.97;;;26.27;32.65
65127;BME280;51927;49.080;19.652;2023-02-14T00:16:40;95855.53;;;26.28;32.51
65127;BME280;51927;49.080;19.652;2023-02-14T00:16:45;95854.75;;;26.28;32.97
65127;BME280;51927;49.080;19.652;2023-02-14T00:16:51;95854.75;;;26.28;32.78
65127;BME280;51927;49.080;19.652;2023-02-14T00:16:56;95852.06;;;26.28;32.65
65127;BME280;51927;49.080;19.652;2023-02-14T00:17:02;95852.84;;;26.28;32.62
65127;BME280;51927;49.080;19.652;2023-02-14T00:17:07;95858.22;;;26.28;32.63
65127;BME280;51927;49.080;19.652;2023-02-14T00:17:12;95850.16;;;26.28;32.63
65127;BME280;51927;49.080;19.652;2023-02-14T00:17:18;95852.84;;;26.28;32.65
65127;BME280;51927;49.080;19.652;2023-02-14T00:17:23;95862.53;;;26.29;32.62
65127;BME280;51927;49.080;19.652;2023-02-14T00:17:28;95854.47;;;26.29;32.58
65127;BME280;51927;49.080;19.652;2023-02-14T00:17:33;95857.16;;;26.29;32.79
65127;BME280;51927;49.080;19.652;2023-02-14T00:17:38;95856.38;;;26.29;32.83
65127;BME280;51927;49.080;19.652;2023-02-14T00:17:44;95856.38;;;26.29;32.52
65127;BME280;51927;49.080;19.652;2023-02-14T00:17:53;95855.25;;;26.30;32.65
65127;BME280;51927;49.080;19.652;2023-02-14T00:17:58;95857.94;;;26.30;32.50
65127;BME280;51927;49.080;19.652;2023-02-14T00:18:03;95853.38;;;26.30;32.69
65127;BME280;51927;49.080;19.652;2023-02-14T00:18:10;95851.00;;;26.29;32.61
65127;BME280;51927;49.080;19.652;2023-02-14T00:18:15;95852.56;;;26.30;32.70
65127;BME280;51927;49.080;19.652;2023-02-14T00:18:20;95851.00;;;26.29;32.47
65127;BME280;51927;49.080;19.652;2023-02-14T00:18:25;95853.38;;;26.30;32.38
65127;BME280;51927;49.080;19.652;2023-02-14T00:18:49;95842.13;;;26.28;32.57
65127;BME280;51927;49.080;19.652;2023-02-14T00:19:10;95844.00;;;26.28;32.78
65127;BME280;51927;49.080;19.652;2023-02-14T00:19:17;95845.91;;;26.27;32.66
65127;BME280;51927;49.080;19.652;2023-02-14T00:19:22;95845.09;;;26.27;32.71
65127;BME280;51927;49.080;19.652;2023-02-14T00:19:28;95839.72;;;26.27;32.63
65127;BME280;51927;49.080;19.652;2023-02-14T00:19:33;95850.47;;;26.27;32.74
65127;BME280;51927;49.080;19.652;2023-02-14T00:19:39;95843.22;;;26.27;32.93
65127;BME280;51927;49.080;19.652;2023-02-14T00:19:45;95842.41;;;26.27;32.87
65127;BME280;51927;49.080;19.652;2023-02-14T00:19:50;95837.03;;;26.27;32.96
65127;BME280;51927;49.080;19.652;2023-02-14T00:19:55;95849.38;;;26.28;32.64
65127;BME280;51927;49.080;19.652;2023-02-14T00:20:00;95838.66;;;26.28;32.63
65127;BME280;51927;49.080;19.652;2023-02-14T00:20:06;95844.00;;;26.28;32.84
65127;BME280;51927;49.080;19.652;2023-02-14T00:20:11;95838.66;;;26.28;32.88
65127;BME280;51927;49.080;19.652;2023-02-14T00:20:16;95840.25;;;26.29;32.72
65127;BME280;51927;49.080;19.652;2023-02-14T00:20:22;95841.81;;;26.30;32.74
65127;BME280;51927;49.080;19.652;2023-02-14T00:20:27;95841.03;;;26.29;32.67
65127;BME280;51927;49.080;19.652;2023-02-14T00:20:33;95843.72;;;26.29;33.00
65127;BME280;51927;49.080;19.652;2023-02-14T00:20:38;95845.63;;;26.29;32.75
65127;BME280;51927;49.080;19.652;2023-02-14T00:20:43;95843.72;;;26.29;32.57
65127;BME280;51927;49.080;19.652;2023-02-14T00:20:48;95845.63;;;26.29;32.76
65127;BME280;51927;49.080;19.652;2023-02-14T00:20:58;95845.63;;;26.29;32.70
65127;BME280;51927;49.080;19.652;2023-02-14T00:21:03;95837.56;;;26.29;32.93
65127;BME280;51927;49.080;19.652;2023-02-14T00:21:08;95830.28;;;26.29;32.62
65127;BME280;51927;49.080;19.652;2023-02-14T00:21:13;95841.81;;;26.30;32.83
65127;BME280;51927;49.080;19.652;2023-02-14T00:21:19;95845.63;;;26.29;32.72
65127;BME280;51927;49.080;19.652;2023-02-14T00:21:24;95845.31;;;26.30;32.58
65127;BME280;51927;49.080;19.652;2023-02-14T00:21:29;95841.03;;;26.29;32.79
65127;BME280;51927;49.080;19.652;2023-02-14T00:21:35;95842.63;;;26.30;32.89
65127;BME280;51927;49.080;19.652;2023-02-14T00:21:41;95841.81;;;26.30;32.81
65127;BME280;51927;49.080;19.652;2023-02-14T00:21:46;95842.63;;;26.30;32.46
65127;BME280;51927;49.080;19.652;2023-02-14T00:21:52;95843.44;;;26.31;32.99
65127;BME280;51927;49.080;19.652;2023-02-14T00:21:57;95840.75;;;26.31;32.67
65127;BME280;51927;49.080;19.652;2023-02-14T00:22:03;95846.09;;;26.31;32.77
65127;BME280;51927;49.080;19.652;2023-02-14T00:22:08;95843.44;;;26.31;32.86
65127;BME280;51927;49.080;19.652;2023-02-14T00:22:13;95833.75;;;26.30;32.56
65127;BME280;51927;49.080;19.652;2023-02-14T00:22:18;95843.44;;;26.31;32.48
65127;BME280;51927;49.080;19.652;2023-02-14T00:22:23;95839.66;;;26.32;32.51
65127;BME280;51927;49.080;19.652;2023-02-14T00:22:29;95843.44;;;26.31;32.64
65127;BME280;51927;49.080;19.652;2023-02-14T00:22:34;95846.91;;;26.31;32.61
65127;BME280;51927;49.080;19.652;2023-02-14T00:22:39;95843.44;;;26.31;32.85
65127;BME280;51927;49.080;19.652;2023-02-14T00:22:44;95843.44;;;26.31;32.44
65127;BME280;51927;49.080;19.652;2023-02-14T00:22:49;95840.75;;;26.31;32.59
65127;BME280;51927;49.080;19.652;2023-02-14T00:22:55;95842.34;;;26.32;32.40
65127;BME280;51927;49.080;19.652;2023-02-14T00:23:00;95845.03;;;26.32;32.97
65127;BME280;51927;49.080;19.652;2023-02-14T00:23:05;95845.03;;;26.32;32.77
65127;BME280;51927;49.080;19.652;2023-02-14T00:23:10;95850.41;;;26.32;32.54
65127;BME280;51927;49.080;19.652;2023-02-14T00:23:15;95849.59;;;26.31;32.69
65127;BME280;51927;49.080;19.652;2023-02-14T00:23:20;95849.59;;;26.31;32.79
65127;BME280;51927;49.080;19.652;2023-02-14T00:23:26;95839.66;;;26.32;32.57
65127;BME280;51927;49.080;19.652;2023-02-14T00:23:31;95844.22;;;26.31;32.50
65127;BME280;51927;49.080;19.652;2023-02-14T00:23:36;95842.34;;;26.32;32.54
65127;BME280;51927;49.080;19.652;2023-02-14T00:23:41;95846.91;;;26.31;32.62
65127;BME280;51927;49.080;19.652;2023-02-14T00:23:46;95843.44;;;26.31;32.44
65127;BME280;51927;49.080;19.652;2023-02-14T00:23:51;95843.44;;;26.31;32.80
65127;BME280;51927;49.080;19.652;2023-02-14T00:23:57;95846.09;;;26.31;32.82
65127;BME280;51927;49.080;19.652;2023-02-14T00:24:03;95848.78;;;26.31;32.69
65127;BME280;51927;49.080;19.652;2023-02-14T00:24:16;95855.75;;;26.32;32.81
65127;BME280;51927;49.080;19.652;2023-02-14T00:24:22;95851.47;;;26.31;32.80
65127;BME280;51927;49.080;19.652;2023-02-14T00:24:28;95848.78;;;26.31;32.52
65127;BME280;51927;49.080;19.652;2023-02-14T00:24:33;95847.72;;;26.32;32.56
65127;BME280;51927;49.080;19.652;2023-02-14T00:24:38;95854.94;;;26.31;32.46
65127;BME280;51927;49.080;19.652;2023-02-14T00:24:43;95855.75;;;26.32;32.43
65127;BME280;51927;49.080;19.652;2023-02-14T00:24:49;95853.88;;;26.32;32.86
65127;BME280;51927;49.080;19.652;2023-02-14T00:24:54;95853.38;;;26.30;32.37
65127;BME280;51927;49.080;19.652;2023-02-14T00:24:59;95846.91;;;26.31;32.63
65127;BME280;51927;49.080;19.652;2023-02-14T00:25:04;95854.16;;;26.31;32.89
65127;BME280;51927;49.080;19.652;2023-02-14T00:25:10;95850.41;;;26.32;32.75
65127;BME280;51927;49.080;19.652;2023-02-14T00:25:15;95858.44;;;26.32;32.52
65127;BME280;51927;49.080;19.652;2023-02-14T00:25:21;95853.09;;;26.32;32.69
65127;BME280;51927;49.080;19.652;2023-02-14T00:25:26;95850.41;;;26.32;32.86
65127;BME280;51927;49.080;19.652;2023-02-14T00:25:32;95850.41;;;26.32;32.63
65127;BME280;51927;49.080;19.652;2023-02-14T00:25:37;95846.91;;;26.31;32.86
65127;BME280;51927;49.080;19.652;2023-02-14T00:25:43;95849.59;;;26.31;32.49
65127;BME280;51927;49.080;19.652;2023-02-14T00:25:48;95851.19;;;26.32;32.57
65127;BME280;51927;49.080;19.652;2023-02-14T00:25:53;95848.50;;;26.32;32.75
65127;BME280;51927;49.080;19.652;2023-02-14T00:25:58;95845.03;;;26.32;32.77
65127;BME280;51927;49.080;19.652;2023-02-14T00:26:03;95847.72;;;26.32;32.67
65127;BME280;51927;49.080;19.652;2023-02-14T00:26:12;95845.03;;;26.32;32.77
65127;BME280;51927;49.080;19.652;2023-02-14T00:26:18;95845.03;;;26.32;32.87
65127;BME280;51927;49.080;19.652;2023-02-14T00:26:24;95854.16;;;26.31;32.81
65127;BME280;51927;49.080;19.652;2023-02-14T00:26:29;95855.75;;;26.32;32.51
65127;BME280;51927;49.080;19.652;2023-02-14T00:26:34;95855.75;;;26.32;32.91
65127;BME280;51927;49.080;19.652;2023-02-14T00:26:42;95854.16;;;26.31;32.86
65127;BME280;51927;49.080;19.652;2023-02-14T00:26:48;95856.56;;;26.32;32.86
65127;BME280;51927;49.080;19.652;2023-02-14T00:26:54;95859.25;;;26.32;32.86
65127;BME280;51927;49.080;19.652;2023-02-14T00:26:59;95855.75;;;26.32;32.97
65127;BME280;51927;49.080;19.652;2023-02-14T00:27:04;95856.56;;;26.32;32.67
65127;BME280;51927;49.080;19.652;2023-02-14T00:27:09;95859.25;;;26.32;32.68
65127;BME280;51927;49.080;19.652;2023-02-14T00:27:14;95853.09;;;26.32;32.85
65127;BME280;51927;49.080;19.652;2023-02-14T00:27:20;95854.66;;;26.33;32.68
65127;BME280;51927;49.080;19.652;2023-02-14T00:27:25;95861.13;;;26.32;32.48
65127;BME280;51927;49.080;19.652;2023-02-14T00:27:30;95855.75;;;26.32;32.39
65127;BME280;51927;49.080;19.652;2023-02-14T00:27:35;95859.25;;;26.32;32.66
65127;BME280;51927;49.080;19.652;2023-02-14T00:27:40;95849.59;;;26.31;32.85
65127;BME280;51927;49.080;19.652;2023-02-14T00:27:46;95851.19;;;26.32;32.83
65127;BME280;51927;49.080;19.652;2023-02-14T00:27:51;95853.88;;;26.32;32.56
65127;BME280;51927;49.080;19.652;2023-02-14T00:27:58;95856.56;;;26.32;32.63
65127;BME280;51927;49.080;19.652;2023-02-14T00:28:03;95863.50;;;26.33;32.45
65127;BME280;51927;49.080;19.652;2023-02-14T00:28:08;95861.13;;;26.32;32.45
65127;BME280;51927;49.080;19.652;2023-02-14T00:28:14;95860.03;;;26.33;32.73
65127;BME280;51927;49.080;19.652;2023-02-14T00:28:19;95858.13;;;26.33;32.56
65127;BME280;51927;49.080;19.652;2023-02-14T00:28:24;95857.34;;;26.33;32.68
65127;BME280;51927;49.080;19.652;2023-02-14T00:28:29;95850.41;;;26.32;32.68
65127;BME280;51927;49.080;19.652;2023-02-14T00:28:35;95857.34;;;26.33;32.67
65127;BME280;51927;49.080;19.652;2023-02-14T00:28:40;95853.88;;;26.32;32.63
65127;BME280;51927;49.080;19.652;2023-02-14T00:28:45;95862.72;;;26.33;32.55
65127;BME280;51927;49.080;19.652;2023-02-14T00:28:50;95854.16;;;26.31;32.46
65127;BME280;51927;49.080;19.652;2023-02-14T00:28:55;95861.13;;;26.32;32.80
65127;BME280;51927;49.080;19.652;2023-02-14T00:29:00;95855.75;;;26.32;32.68
65127;BME280;51927;49.080;19.652;2023-02-14T00:29:07;95862.72;;;26.33;32.66
65127;BME280;51927;49.080;19.652;2023-02-14T00:29:14;95860.03;;;26.33;32.51
65127;BME280;51927;49.080;19.652;2023-02-14T00:29:21;95863.50;;;26.33;32.66
65127;BME280;51927;49.080;19.652;2023-02-14T00:29:27;95862.72;;;26.33;32.66
65127;BME280;51927;49.080;19.652;2023-02-14T00:29:33;95863.50;;;26.33;32.35
65127;BME280;51927;49.080;19.652;2023-02-14T00:29:38;95857.34;;;26.33;32.69
65127;BME280;51927;49.080;19.652;2023-02-14T00:29:43;95858.13;;;26.33;32.64
65127;BME280;51927;49.080;19.652;2023-02-14T00:29:49;95857.34;;;26.33;32.60
65127;BME280;51927;49.080;19.652;2023-02-14T00:29:54;95862.41;;;26.34;32.62
65127;BME280;51927;49.080;19.652;2023-02-14T00:30:00;95857.34;;;26.33;32.43
65127;BME280;51927;49.080;19.652;2023-02-14T00:30:10;95861.94;;;26.32;32.64
65127;BME280;51927;49.080;19.652;2023-02-14T00:30:15;95861.94;;;26.32;32.50
65127;BME280;51927;49.080;19.652;2023-02-14T00:30:20;95866.50;;;26.32;32.67
65127;BME280;51927;49.080;19.652;2023-02-14T00:30:26;95860.03;;;26.33;32.69
65127;BME280;51927;49.080;19.652;2023-02-14T00:30:31;95862.72;;;26.33;32.64
65127;BME280;51927;49.080;19.652;2023-02-14T00:30:36;95859.25;;;26.32;32.63
65127;BME280;51927;49.080;19.652;2023-02-14T00:30:41;95865.41;;;26.33;32.55